sensor_id;sensor_type;location;lat;lon;timestamp;pressure;altitude;pressure_sealevel;temperature;humidity
55757;BME280;41676;44.610;44.078;2024-02-15T00:00:53;100600.09;;;4.35;100.00
55757;BME280;41676;44.610;44.078;2024-02-15T00:05:54;100549.94;;;4.04;100.00
55757;BME280;41676;44.610;44.078;2024-02-15T00:10:54;100603.69;;;4.34;100.00
55757;BME280;41676;44.610;44.078;2024-02-15T00:15:55;100603.31;;;4.27;100.00
55757;BME280;41676;44.610;44.078;2024-02-15T00:20:56;100598.78;;;4.18;100.00
55757;BME280;41676;44.610;44.078;2024-02-15T00:25:57;100602.72;;;4.24;100.00
55757;BME280;41676;44.610;44.078;2024-02-15T00:30:57;100594.16;;;4.10;100.00
55757;BME280;41676;44.610;44.078;2024-02-15T00:35:58;100612.53;;;4.10;100.00
55757;BME280;41676;44.610;44.078;2024-02-15T00:40:59;100610.16;;;4.07;100.00
55757;BME280;41676;44.610;44.078;2024-02-15T00:46:00;100583.16;;;3.83;100.00
55757;BME280;41676;44.610;44.078;2024-02-15T00:51:01;100619.59;;;4.10;100.00
55757;BME280;41676;44.610;44.078;2024-02-15T00:56:02;100623.66;;;4.14;100.00
55757;BME280;41676;44.610;44.078;2024-02-15T01:01:02;100613.97;;;4.03;100.00
55757;BME280;41676;44.610;44.078;2024-02-15T01:06:03;100581.34;;;3.72;100.00
55757;BME280;41676;44.610;44.078;2024-02-15T01:11:06;100629.28;;;3.98;100.00
55757;BME280;41676;44.610;44.078;2024-02-15T01:16:07;100642.75;;;3.94;100.00
55757;BME280;41676;44.610;44.078;2024-02-15T01:21:08;100596.97;;;3.62;100.00
55757;BME280;41676;44.610;44.078;2024-02-15T01:26:12;100659.72;;;3.89;100.00
55757;BME280;41676;44.610;44.078;2024-02-15T01:31:13;100637.25;;;3.74;100.00
55757;BME280;41676;44.610;44.078;2024-02-15T01:36:17;100655.63;;;3.85;100.00
55757;BME280;41676;44.610;44.078;2024-02-15T01:41:18;100603.28;;;3.49;100.00
55757;BME280;41676;44.610;44.078;2024-02-15T01:46:20;100622.38;;;3.62;100.00
55757;BME280;41676;44.610;44.078;2024-02-15T01:51:21;100663.66;;;3.84;100.00
55757;BME280;41676;44.610;44.078;2024-02-15T01:56:24;100668.19;;;3.82;100.00
55757;BME280;41676;44.610;44.078;2024-02-15T02:01:25;100630.09;;;3.41;100.00
55757;BME280;41676;44.610;44.078;2024-02-15T02:06:26;100676.75;;;3.73;100.00
55757;BME280;41676;44.610;44.078;2024-02-15T02:11:28;100690.28;;;3.79;100.00
55757;BME280;41676;44.610;44.078;2024-02-15T02:16:31;100695.44;;;3.81;100.00
55757;BME280;41676;44.610;44.078;2024-02-15T02:21:32;100681.28;;;3.71;100.00
55757;BME280;41676;44.610;44.078;2024-02-15T02:26:34;100698.53;;;3.75;100.00
55757;BME280;41676;44.610;44.078;2024-02-15T02:31:36;100693.31;;;3.62;100.00
55757;BME280;41676;44.610;44.078;2024-02-15T02:36:37;100691.38;;;3.53;100.00
55757;BME280;41676;44.610;44.078;2024-02-15T02:41:38;100710.63;;;3.53;100.00
55757;BME280;41676;44.610;44.078;2024-02-15T02:46:38;100707.59;;;3.47;100.00
55757;BME280;41676;44.610;44.078;2024-02-15T02:51:42;100710.22;;;3.47;100.00
55757;BME280;41676;44.610;44.078;2024-02-15T02:56:43;100719.44;;;3.52;100.00
55757;BME280;41676;44.610;44.078;2024-02-15T03:01:45;100703.91;;;3.49;100.00
55757;BME280;41676;44.610;44.078;2024-02-15T03:06:46;100695.56;;;3.44;100.00
55757;BME280;41676;44.610;44.078;2024-02-15T03:11:48;100643.34;;;3.04;100.00
55757;BME280;41676;44.610;44.078;2024-02-15T03:16:50;100712.81;;;3.35;100.00
55757;BME280;41676;44.610;44.078;2024-02-15T03:21:50;100729.91;;;3.41;100.00
55757;BME280;41676;44.610;44.078;2024-02-15T03:26:53;100727.56;;;3.49;100.00
55757;BME280;41676;44.610;44.078;2024-02-15T03:31:56;100672.88;;;3.19;100.00
55757;BME280;41676;44.610;44.078;2024-02-15T03:36:57;100682.63;;;3.17;100.00
55757;BME280;41676;44.610;44.078;2024-02-15T03:41:58;100699.13;;;3.19;100.00
55757;BME280;41676;44.610;44.078;2024-02-15T03:46:59;100748.19;;;3.42;100.00
55757;BME280;41676;44.610;44.078;2024-02-15T03:52:00;100742.31;;;3.39;100.00
55757;BME280;41676;44.610;44.078;2024-02-15T03:57:00;100738.22;;;3.35;100.00
55757;BME280;41676;44.610;44.078;2024-02-15T04:02:01;100731.53;;;3.31;100.00
55757;BME280;41676;44.610;44.078;2024-02-15T04:07:03;100704.00;;;3.12;100.00
55757;BME280;41676;44.610;44.078;2024-02-15T04:12:05;100731.69;;;3.16;100.00
55757;BME280;41676;44.610;44.078;2024-02-15T04:17:07;100753.88;;;3.12;100.00
55757;BME280;41676;44.610;44.078;2024-02-15T04:22:08;100763.75;;;3.09;100.00
55757;BME280;41676;44.610;44.078;2024-02-15T04:27:09;100741.75;;;2.86;100.00
55757;BME280;41676;44.610;44.078;2024-02-15T04:32:14;100801.72;;;3.16;100.00
55757;BME280;41676;44.610;44.078;2024-02-15T04:37:16;100763.88;;;2.94;100.00
55757;BME280;41676;44.610;44.078;2024-02-15T04:42:17;100772.72;;;2.81;100.00
55757;BME280;41676;44.610;44.078;2024-02-15T04:47:19;100749.03;;;2.57;100.00
55757;BME280;41676;44.610;44.078;2024-02-15T04:52:20;100851.31;;;3.08;100.00
55757;BME280;41676;44.610;44.078;2024-02-15T04:57:25;100841.16;;;2.90;100.00
55757;BME280;41676;44.610;44.078;2024-02-15T05:02:28;100882.81;;;3.08;100.00
55757;BME280;41676;44.610;44.078;2024-02-15T05:07:30;100882.09;;;3.06;100.00
55757;BME280;41676;44.610;44.078;2024-02-15T05:12:31;100832.78;;;2.72;100.00
55757;BME280;41676;44.610;44.078;2024-02-15T05:17:31;100848.38;;;2.87;100.00
55757;BME280;41676;44.610;44.078;2024-02-15T05:22:34;100833.63;;;2.73;100.00
55757;BME280;41676;44.610;44.078;2024-02-15T05:27:36;100781.78;;;2.51;100.00
55757;BME280;41676;44.610;44.078;2024-02-15T05:32:37;100771.69;;;2.45;100.00
55757;BME280;41676;44.610;44.078;2024-02-15T05:37:43;100872.44;;;3.06;100.00
55757;BME280;41676;44.610;44.078;2024-02-15T05:42:44;100819.53;;;2.74;100.00
55757;BME280;41676;44.610;44.078;2024-02-15T05:47:47;100848.09;;;2.91;100.00
55757;BME280;41676;44.610;44.078;2024-02-15T05:52:48;100864.03;;;2.88;100.00
55757;BME280;41676;44.610;44.078;2024-02-15T05:57:49;100857.13;;;2.87;100.00
55757;BME280;41676;44.610;44.078;2024-02-15T06:02:49;100823.41;;;2.68;100.00
55757;BME280;41676;44.610;44.078;2024-02-15T06:07:50;100861.28;;;2.90;100.00
55757;BME280;41676;44.610;44.078;2024-02-15T06:12:52;100869.72;;;2.82;100.00
55757;BME280;41676;44.610;44.078;2024-02-15T06:17:52;100881.25;;;2.80;100.00
55757;BME280;41676;44.610;44.078;2024-02-15T06:22:53;100831.38;;;2.54;100.00
55757;BME280;41676;44.610;44.078;2024-02-15T06:27:54;100892.16;;;2.73;100.00
55757;BME280;41676;44.610;44.078;2024-02-15T06:33:02;100899.00;;;2.63;100.00
55757;BME280;41676;44.610;44.078;2024-02-15T06:38:22;100889.22;;;2.65;100.00
55757;BME280;41676;44.610;44.078;2024-02-15T06:43:41;100789.94;;;2.21;100.00
55757;BME280;41676;44.610;44.078;2024-02-15T06:48:42;100913.97;;;2.87;100.00
55757;BME280;41676;44.610;44.078;2024-02-15T06:53:44;100857.94;;;2.62;100.00
55757;BME280;41676;44.610;44.078;2024-02-15T06:58:46;100903.28;;;2.90;100.00
55757;BME280;41676;44.610;44.078;2024-02-15T07:03:48;100907.28;;;2.83;100.00
55757;BME280;41676;44.610;44.078;2024-02-15T07:08:50;100912.53;;;2.83;100.00
55757;BME280;41676;44.610;44.078;2024-02-15T07:13:54;100910.84;;;2.82;100.00
55757;BME280;41676;44.610;44.078;2024-02-15T07:18:55;100934.69;;;2.91;100.00
55757;BME280;41676;44.610;44.078;2024-02-15T07:23:56;100899.94;;;2.88;100.00
55757;BME280;41676;44.610;44.078;2024-02-15T07:28:56;100911.16;;;2.90;100.00
55757;BME280;41676;44.610;44.078;2024-02-15T07:33:57;100929.22;;;2.82;100.00
55757;BME280;41676;44.610;44.078;2024-02-15T07:38:58;100852.28;;;2.43;100.00
55757;BME280;41676;44.610;44.078;2024-02-15T07:44:01;100913.28;;;2.85;100.00
55757;BME280;41676;44.610;44.078;2024-02-15T07:49:02;100868.75;;;2.58;100.00
55757;BME280;41676;44.610;44.078;2024-02-15T07:54:03;100914.72;;;2.89;100.00
55757;BME280;41676;44.610;44.078;2024-02-15T07:59:03;100903.19;;;2.79;100.00
55757;BME280;41676;44.610;44.078;2024-02-15T08:04:04;100906.66;;;2.92;100.00
55757;BME280;41676;44.610;44.078;2024-02-15T08:09:05;100913.91;;;2.88;100.00
55757;BME280;41676;44.610;44.078;2024-02-15T08:14:06;100913.28;;;2.85;100.00
55757;BME280;41676;44.610;44.078;2024-02-15T08:19:09;100854.69;;;2.59;100.00
55757;BME280;41676;44.610;44.078;2024-02-15T08:24:11;100903.19;;;2.91;100.00
55757;BME280;41676;44.610;44.078;2024-02-15T08:29:12;100899.53;;;2.94;100.00
55757;BME280;41676;44.610;44.078;2024-02-15T08:34:15;100886.72;;;3.02;100.00
55757;BME280;41676;44.610;44.078;2024-02-15T08:39:18;100877.47;;;3.09;100.00
55757;BME280;41676;44.610;44.078;2024-02-15T08:44:19;100891.00;;;3.03;100.00
55757;BME280;41676;44.610;44.078;2024-02-15T08:49:22;100886.50;;;2.92;100.00
55757;BME280;41676;44.610;44.078;2024-02-15T08:54:22;100820.59;;;2.71;100.00
55757;BME280;41676;44.610;44.078;2024-02-15T08:59:23;100817.78;;;2.49;100.00
55757;BME280;41676;44.610;44.078;2024-02-15T09:04:25;100857.31;;;2.71;100.00
55757;BME280;41676;44.610;44.078;2024-02-15T09:09:26;100863.94;;;2.64;100.00
55757;BME280;41676;44.610;44.078;2024-02-15T09:14:27;100861.50;;;2.74;100.00
55757;BME280;41676;44.610;44.078;2024-02-15T09:19:28;100855.66;;;2.70;100.00
55757;BME280;41676;44.610;44.078;2024-02-15T09:24:28;100857.13;;;2.87;100.00
55757;BME280;41676;44.610;44.078;2024-02-15T09:29:29;100854.69;;;2.97;100.00
55757;BME280;41676;44.610;44.078;2024-02-15T09:34:30;100803.06;;;2.72;100.00
55757;BME280;41676;44.610;44.078;2024-02-15T09:39:31;100852.88;;;3.10;100.00
55757;BME280;41676;44.610;44.078;2024-02-15T09:44:32;100823.75;;;2.77;100.00
55757;BME280;41676;44.610;44.078;2024-02-15T09:49:35;100886.19;;;2.97;100.00
55757;BME280;41676;44.610;44.078;2024-02-15T09:54:40;100866.53;;;2.90;100.00
55757;BME280;41676;44.610;44.078;2024-02-15T09:59:43;100880.59;;;3.02;100.00
55757;BME280;41676;44.610;44.078;2024-02-15T10:04:45;100878.84;;;3.02;100.00
55757;BME280;41676;44.610;44.078;2024-02-15T10:09:46;100886.81;;;2.88;100.00
55757;BME280;41676;44.610;44.078;2024-02-15T10:14:52;100901.06;;;2.84;100.00
55757;BME280;41676;44.610;44.078;2024-02-15T10:20:03;100872.44;;;2.68;100.00
55757;BME280;41676;44.610;44.078;2024-02-15T10:25:12;100891.13;;;2.63;100.00
55757;BME280;41676;44.610;44.078;2024-02-15T10:30:17;100892.56;;;2.55;100.00
55757;BME280;41676;44.610;44.078;2024-02-15T10:35:20;100900.94;;;2.60;100.00
55757;BME280;41676;44.610;44.078;2024-02-15T10:40:21;100898.78;;;2.66;100.00
55757;BME280;41676;44.610;44.078;2024-02-15T10:45:22;100892.56;;;2.55;100.00
55757;BME280;41676;44.610;44.078;2024-02-15T10:50:26;100904.81;;;2.54;100.00
55757;BME280;41676;44.610;44.078;2024-02-15T10:55:40;100890.38;;;2.48;100.00
55757;BME280;41676;44.610;44.078;2024-02-15T11:00:46;100831.47;;;2.14;100.00
55757;BME280;41676;44.610;44.078;2024-02-15T11:05:48;100896.94;;;2.41;100.00
55757;BME280;41676;44.610;44.078;2024-02-15T11:10:49;100884.78;;;2.40;100.00
55757;BME280;41676;44.610;44.078;2024-02-15T11:15:50;100874.16;;;2.29;100.00
55757;BME280;41676;44.610;44.078;2024-02-15T11:20:53;100879.38;;;2.16;100.00
55757;BME280;41676;44.610;44.078;2024-02-15T11:25:56;100883.03;;;2.14;100.00
55757;BME280;41676;44.610;44.078;2024-02-15T11:30:59;100888.28;;;2.14;100.00
55757;BME280;41676;44.610;44.078;2024-02-15T11:36:10;100902.38;;;2.25;100.00
55757;BME280;41676;44.610;44.078;2024-02-15T11:41:18;100898.44;;;2.18;100.00
55757;BME280;41676;44.610;44.078;2024-02-15T11:46:19;100889.72;;;2.05;100.00
55757;BME280;41676;44.610;44.078;2024-02-15T11:51:33;100913.47;;;2.16;100.00
55757;BME280;41676;44.610;44.078;2024-02-15T12:01:44;100903.50;;;1.94;100.00
55757;BME280;41676;44.610;44.078;2024-02-15T12:07:04;100919.13;;;1.96;100.00
55757;BME280;41676;44.610;44.078;2024-02-15T12:12:23;100938.47;;;2.08;100.00
55757;BME280;41676;44.610;44.078;2024-02-15T12:17:42;100938.56;;;2.06;100.00
55757;BME280;41676;44.610;44.078;2024-02-15T12:23:02;100906.47;;;1.75;100.00
55757;BME280;41676;44.610;44.078;2024-02-15T12:28:03;100898.56;;;1.48;100.00
55757;BME280;41676;44.610;44.078;2024-02-15T12:33:14;100929.69;;;1.67;100.00
55757;BME280;41676;44.610;44.078;2024-02-15T12:38:20;100945.63;;;1.50;100.00
55757;BME280;41676;44.610;44.078;2024-02-15T12:43:21;100906.94;;;1.12;100.00
55757;BME280;41676;44.610;44.078;2024-02-15T12:48:23;100924.31;;;1.13;100.00
55757;BME280;41676;44.610;44.078;2024-02-15T12:53:23;100951.41;;;1.41;100.00
55757;BME280;41676;44.610;44.078;2024-02-15T12:58:27;100946.00;;;1.29;100.00
55757;BME280;41676;44.610;44.078;2024-02-15T13:03:29;100948.13;;;1.37;100.00
55757;BME280;41676;44.610;44.078;2024-02-15T13:08:30;100957.41;;;1.43;100.00
55757;BME280;41676;44.610;44.078;2024-02-15T13:13:32;100925.97;;;1.28;100.00
55757;BME280;41676;44.610;44.078;2024-02-15T13:18:35;100935.03;;;1.37;100.00
55757;BME280;41676;44.610;44.078;2024-02-15T13:23:37;100903.94;;;1.18;100.00
55757;BME280;41676;44.610;44.078;2024-02-15T13:28:37;100977.94;;;1.34;100.00
55757;BME280;41676;44.610;44.078;2024-02-15T13:33:38;100953.84;;;1.15;100.00
55757;BME280;41676;44.610;44.078;2024-02-15T13:38:39;100976.94;;;1.37;100.00
55757;BME280;41676;44.610;44.078;2024-02-15T13:43:40;100983.47;;;1.30;100.00
55757;BME280;41676;44.610;44.078;2024-02-15T13:48:41;100990.50;;;1.29;100.00
55757;BME280;41676;44.610;44.078;2024-02-15T13:53:44;101004.88;;;1.36;100.00
55757;BME280;41676;44.610;44.078;2024-02-15T13:58:44;101024.06;;;1.37;100.00
55757;BME280;41676;44.610;44.078;2024-02-15T14:03:45;101022.28;;;1.37;100.00
55757;BME280;41676;44.610;44.078;2024-02-15T14:08:47;101037.63;;;1.29;100.00
55757;BME280;41676;44.610;44.078;2024-02-15T14:13:48;101013.75;;;1.05;100.00
55757;BME280;41676;44.610;44.078;2024-02-15T14:18:48;101035.16;;;1.12;100.00
55757;BME280;41676;44.610;44.078;2024-02-15T14:23:50;101060.84;;;1.20;100.00
55757;BME280;41676;44.610;44.078;2024-02-15T14:28:51;101056.09;;;1.12;100.00
55757;BME280;41676;44.610;44.078;2024-02-15T14:33:52;101071.03;;;1.10;100.00
55757;BME280;41676;44.610;44.078;2024-02-15T14:38:53;101067.94;;;1.03;100.00
55757;BME280;41676;44.610;44.078;2024-02-15T14:43:55;101074.34;;;0.98;100.00
55757;BME280;41676;44.610;44.078;2024-02-15T14:48:55;101079.44;;;0.85;100.00
55757;BME280;41676;44.610;44.078;2024-02-15T14:53:58;101083.19;;;0.81;100.00
55757;BME280;41676;44.610;44.078;2024-02-15T14:58:59;101054.88;;;0.57;100.00
55757;BME280;41676;44.610;44.078;2024-02-15T15:04:00;101053.94;;;0.58;100.00
55757;BME280;41676;44.610;44.078;2024-02-15T15:09:05;101119.34;;;0.88;100.00
55757;BME280;41676;44.610;44.078;2024-02-15T15:14:24;101046.19;;;0.41;100.00
55757;BME280;41676;44.610;44.078;2024-02-15T15:19:25;101146.97;;;0.78;100.00
55757;BME280;41676;44.610;44.078;2024-02-15T15:24:27;101104.69;;;0.70;100.00
55757;BME280;41676;44.610;44.078;2024-02-15T15:29:28;101140.81;;;0.63;100.00
55757;BME280;41676;44.610;44.078;2024-02-15T15:34:29;101163.84;;;0.73;100.00
55757;BME280;41676;44.610;44.078;2024-02-15T15:39:30;101171.59;;;0.74;100.00
55757;BME280;41676;44.610;44.078;2024-02-15T15:44:33;101159.00;;;0.65;100.00
55757;BME280;41676;44.610;44.078;2024-02-15T15:49:34;101163.91;;;0.71;100.00
55757;BME280;41676;44.610;44.078;2024-02-15T15:54:35;101170.41;;;0.64;100.00
55757;BME280;41676;44.610;44.078;2024-02-15T15:59:36;101161.38;;;0.54;100.00
55757;BME280;41676;44.610;44.078;2024-02-15T16:04:43;101190.22;;;0.52;100.00
55757;BME280;41676;44.610;44.078;2024-02-15T16:09:44;101183.56;;;0.47;100.00
55757;BME280;41676;44.610;44.078;2024-02-15T16:14:45;101123.81;;;0.07;100.00
55757;BME280;41676;44.610;44.078;2024-02-15T16:19:48;101176.38;;;0.34;100.00
55757;BME280;41676;44.610;44.078;2024-02-15T16:24:49;101185.38;;;0.44;100.00
55757;BME280;41676;44.610;44.078;2024-02-15T16:29:50;101180.00;;;0.48;100.00
55757;BME280;41676;44.610;44.078;2024-02-15T16:34:50;101178.59;;;0.42;100.00
55757;BME280;41676;44.610;44.078;2024-02-15T16:39:52;101182.94;;;0.41;100.00
55757;BME280;41676;44.610;44.078;2024-02-15T16:44:54;101185.66;;;0.40;100.00
55757;BME280;41676;44.610;44.078;2024-02-15T16:49:57;101197.88;;;0.39;100.00
55757;BME280;41676;44.610;44.078;2024-02-15T16:54:57;101204.03;;;0.38;100.00
55757;BME280;41676;44.610;44.078;2024-02-15T16:59:59;101103.38;;;-0.18;100.00
55757;BME280;41676;44.610;44.078;2024-02-15T17:05:00;101208.41;;;0.38;100.00
55757;BME280;41676;44.610;44.078;2024-02-15T17:10:03;101191.28;;;0.32;100.00
55757;BME280;41676;44.610;44.078;2024-02-15T17:15:05;101184.03;;;0.21;100.00
55757;BME280;41676;44.610;44.078;2024-02-15T17:20:08;101203.00;;;0.25;100.00
55757;BME280;41676;44.610;44.078;2024-02-15T17:25:15;101219.34;;;0.29;100.00
55757;BME280;41676;44.610;44.078;2024-02-15T17:30:16;101223.97;;;0.23;100.00
55757;BME280;41676;44.610;44.078;2024-02-15T17:35:16;101232.84;;;0.21;100.00
55757;BME280;41676;44.610;44.078;2024-02-15T17:40:19;101239.75;;;0.22;100.00
55757;BME280;41676;44.610;44.078;2024-02-15T17:45:20;101185.69;;;-0.11;100.00
55757;BME280;41676;44.610;44.078;2024-02-15T17:50:21;101187.38;;;-0.27;100.00
55757;BME280;41676;44.610;44.078;2024-02-15T17:55:26;101244.19;;;0.03;100.00
55757;BME280;41676;44.610;44.078;2024-02-15T18:00:26;101178.03;;;-0.49;100.00
55757;BME280;41676;44.610;44.078;2024-02-15T18:05:29;101256.22;;;-0.11;100.00
55757;BME280;41676;44.610;44.078;2024-02-15T18:10:31;101208.13;;;-0.41;100.00
55757;BME280;41676;44.610;44.078;2024-02-15T18:15:33;101267.75;;;-0.15;100.00
55757;BME280;41676;44.610;44.078;2024-02-15T18:20:39;101277.78;;;-0.07;100.00
55757;BME280;41676;44.610;44.078;2024-02-15T18:25:42;101280.34;;;-0.06;100.00
55757;BME280;41676;44.610;44.078;2024-02-15T18:30:43;101243.44;;;-0.34;100.00
55757;BME280;41676;44.610;44.078;2024-02-15T18:35:47;101277.72;;;-0.23;100.00
55757;BME280;41676;44.610;44.078;2024-02-15T18:40:48;101301.53;;;-0.12;100.00
55757;BME280;41676;44.610;44.078;2024-02-15T18:45:49;101226.59;;;-0.63;100.00
55757;BME280;41676;44.610;44.078;2024-02-15T18:50:49;101311.06;;;-0.11;100.00
55757;BME280;41676;44.610;44.078;2024-02-15T18:55:50;101319.03;;;-0.14;100.00
55757;BME280;41676;44.610;44.078;2024-02-15T19:00:53;101249.59;;;-0.53;100.00
55757;BME280;41676;44.610;44.078;2024-02-15T19:05:54;101308.59;;;-0.14;100.00
55757;BME280;41676;44.610;44.078;2024-02-15T19:10:54;101310.38;;;-0.14;100.00
55757;BME280;41676;44.610;44.078;2024-02-15T19:15:58;101309.44;;;-0.13;100.00
55757;BME280;41676;44.610;44.078;2024-02-15T19:20:59;101315.19;;;-0.07;100.00
55757;BME280;41676;44.610;44.078;2024-02-15T19:26:00;101321.56;;;-0.12;100.00
55757;BME280;41676;44.610;44.078;2024-02-15T19:31:01;101303.03;;;-0.25;100.00
55757;BME280;41676;44.610;44.078;2024-02-15T19:36:02;101337.19;;;-0.11;100.00
55757;BME280;41676;44.610;44.078;2024-02-15T19:41:04;101267.59;;;-0.48;100.00
55757;BME280;41676;44.610;44.078;2024-02-15T19:46:05;101339.69;;;-0.09;100.00
55757;BME280;41676;44.610;44.078;2024-02-15T19:51:06;101284.69;;;-0.41;100.00
55757;BME280;41676;44.610;44.078;2024-02-15T19:56:09;101337.97;;;-0.09;100.00
55757;BME280;41676;44.610;44.078;2024-02-15T20:01:12;101342.41;;;-0.11;100.00
55757;BME280;41676;44.610;44.078;2024-02-15T20:06:15;101345.00;;;-0.11;100.00
55757;BME280;41676;44.610;44.078;2024-02-15T20:11:16;101347.97;;;-0.18;100.00
55757;BME280;41676;44.610;44.078;2024-02-15T20:16:17;101353.97;;;-0.16;100.00
55757;BME280;41676;44.610;44.078;2024-02-15T20:21:22;101344.00;;;-0.26;100.00
55757;BME280;41676;44.610;44.078;2024-02-15T20:26:23;101319.75;;;-0.47;100.00
55757;BME280;41676;44.610;44.078;2024-02-15T20:31:27;101325.41;;;-0.56;100.00
55757;BME280;41676;44.610;44.078;2024-02-15T20:36:31;101372.56;;;-0.22;100.00
55757;BME280;41676;44.610;44.078;2024-02-15T20:41:32;101372.22;;;-0.34;100.00
55757;BME280;41676;44.610;44.078;2024-02-15T20:46:32;101364.25;;;-0.31;100.00
55757;BME280;41676;44.610;44.078;2024-02-15T20:51:33;101369.31;;;-0.28;100.00
55757;BME280;41676;44.610;44.078;2024-02-15T20:56:35;101376.41;;;-0.30;100.00
55757;BME280;41676;44.610;44.078;2024-02-15T21:01:37;101373.56;;;-0.25;100.00
55757;BME280;41676;44.610;44.078;2024-02-15T21:06:38;101312.41;;;-0.75;100.00
55757;BME280;41676;44.610;44.078;2024-02-15T21:11:39;101384.44;;;-0.34;100.00
55757;BME280;41676;44.610;44.078;2024-02-15T21:16:40;101367.09;;;-0.35;100.00
55757;BME280;41676;44.610;44.078;2024-02-15T21:21:44;101367.59;;;-0.46;100.00
55757;BME280;41676;44.610;44.078;2024-02-15T21:26:46;101398.69;;;-0.22;100.00
55757;BME280;41676;44.610;44.078;2024-02-15T21:31:47;101395.56;;;-0.31;100.00
55757;BME280;41676;44.610;44.078;2024-02-15T21:36:51;101395.50;;;-0.29;100.00
55757;BME280;41676;44.610;44.078;2024-02-15T21:41:51;101357.53;;;-0.54;100.00
55757;BME280;41676;44.610;44.078;2024-02-15T21:46:53;101400.88;;;-0.32;100.00
55757;BME280;41676;44.610;44.078;2024-02-15T21:51:54;101399.50;;;-0.22;100.00
55757;BME280;41676;44.610;44.078;2024-02-15T21:56:55;101384.13;;;-0.28;100.00
55757;BME280;41676;44.610;44.078;2024-02-15T22:01:56;101386.59;;;-0.25;100.00
55757;BME280;41676;44.610;44.078;2024-02-15T22:06:56;101292.22;;;-0.90;100.00
55757;BME280;41676;44.610;44.078;2024-02-15T22:11:57;101391.78;;;-0.24;100.00
55757;BME280;41676;44.610;44.078;2024-02-15T22:16:58;101402.22;;;-0.24;100.00
55757;BME280;41676;44.610;44.078;2024-02-15T22:21:59;101398.88;;;-0.27;100.00
55757;BME280;41676;44.610;44.078;2024-02-15T22:27:00;101403.19;;;-0.26;100.00
55757;BME280;41676;44.610;44.078;2024-02-15T22:32:00;101375.06;;;-0.38;100.00
55757;BME280;41676;44.610;44.078;2024-02-15T22:37:02;101389.94;;;-0.40;100.00
55757;BME280;41676;44.610;44.078;2024-02-15T22:42:03;101401.03;;;-0.35;100.00
55757;BME280;41676;44.610;44.078;2024-02-15T22:47:04;101353.91;;;-0.70;100.00
55757;BME280;41676;44.610;44.078;2024-02-15T22:52:04;101335.28;;;-0.81;100.00
55757;BME280;41676;44.610;44.078;2024-02-15T22:57:05;101411.97;;;-0.46;100.00
55757;BME280;41676;44.610;44.078;2024-02-15T23:02:08;101399.97;;;-0.50;100.00
55757;BME280;41676;44.610;44.078;2024-02-15T23:07:09;101413.88;;;-0.50;100.00
55757;BME280;41676;44.610;44.078;2024-02-15T23:12:10;101403.84;;;-0.59;100.00
55757;BME280;41676;44.610;44.078;2024-02-15T23:17:10;101415.84;;;-0.55;100.00
55757;BME280;41676;44.610;44.078;2024-02-15T23:22:11;101395.00;;;-0.75;100.00
55757;BME280;41676;44.610;44.078;2024-02-15T23:27:14;101368.09;;;-0.95;100.00
55757;BME280;41676;44.610;44.078;2024-02-15T23:32:14;101372.31;;;-0.92;100.00
55757;BME280;41676;44.610;44.078;2024-02-15T23:37:15;101408.94;;;-0.75;100.00
55757;BME280;41676;44.610;44.078;2024-02-15T23:42:34;101340.97;;;-1.11;100.00
55757;BME280;41676;44.610;44.078;2024-02-15T23:47:35;101359.47;;;-0.97;100.00
55757;BME280;41676;44.610;44.078;2024-02-15T23:52:37;101399.38;;;-0.76;100.00
55757;BME280;41676;44.610;44.078;2024-02-15T23:57:40;101406.72;;;-0.84;100.00
